Portada
METAR-TAF:

METAR-TAF

Aeropuertos :

Aeropuerto de Belgrado-Nikola Tesla

Belgrado, Serbia

latitud: 44-49N, longitud: 020-17E, altitud: 96 m

Observación

El informe se hizo hace 36 minutos, a las 05:30 UTC
Viento 5 kt del sur, variando entre sur y norte-noroeste
Temperatura 22°C
Humedad 78%
Presión 1016 hPa
Visibilidad 10 km o más
sin nubes por debajo de 1500 m y sin presencia de cumulonimbus.

METAR: LYBE 210530Z 19005KT 180V340 CAVOK 22/18 Q1016 NOSIG

Hora: 08:06 (06:06 UTC)

Pronóstico

El informe se hizo hace 7 horas y 6 minutos, a las 23:00 UTC
Pronóstico válido del 21 a las 00 UTC al 21 a las 24 UTC
Viento 2 kt con dirección variable
Visibilidad 10 km o más
sin nubes por debajo de 1500 m y sin presencia de cumulonimbus.

TAF: LYBE 202300Z 2100/2124 VRB02KT CAVOK TX33/2113Z TN19/2103Z

Observaciones y pronósticos meteorológicos de más de 4000 aeropuertos (mensajes METAR y TAF).

Los puntos amarillos y rojos representan las estaciones disponibles.

Ponga el ratón en el punto deseado para ver el nombre de la estación.

Haga clic para ver las observaciones y los pronósticos meteorológicos.

Para cambiar el mapa : haga clic en los botones verdes con una cruz de color negro para hacer un zoom, en el botón verde con un guión para alejar o en las flechas verdes para mapas adyacentes.


METAR-TAF: